createdAt,value
2023-05-19T00:01:26.976Z,1017.78
2023-05-19T00:07:47.011Z,1017.76
2023-05-19T00:14:10.020Z,1017.72
2023-05-19T00:20:30.278Z,1017.72
2023-05-19T00:26:52.976Z,1017.68
2023-05-19T00:33:13.075Z,1017.7
2023-05-19T00:39:36.008Z,1017.66
2023-05-19T00:45:56.007Z,1017.62
2023-05-19T00:52:19.016Z,1017.64
2023-05-19T00:58:39.027Z,1017.68
2023-05-19T01:05:02.028Z,1017.72
2023-05-19T01:11:22.038Z,1017.76
2023-05-19T01:17:45.018Z,1017.76
2023-05-19T01:24:04.983Z,1017.72
2023-05-19T01:30:28.023Z,1017.66
2023-05-19T01:36:48.039Z,1017.64
2023-05-19T01:43:11.013Z,1017.62
2023-05-19T01:49:31.084Z,1017.62
2023-05-19T01:55:53.987Z,1017.62
2023-05-19T02:02:13.981Z,1017.62
2023-05-19T02:08:37.018Z,1017.66
2023-05-19T02:14:57.008Z,1017.72
2023-05-19T02:21:19.970Z,1017.72
2023-05-19T02:27:40.004Z,1017.74
2023-05-19T02:34:02.999Z,1017.76
2023-05-19T02:40:23.017Z,1017.76
2023-05-19T02:46:46.210Z,1017.72
2023-05-19T02:53:06.009Z,1017.68
2023-05-19T02:59:28.981Z,1017.66
2023-05-19T03:05:49.012Z,1017.66
2023-05-19T03:12:11.976Z,1017.62
2023-05-19T03:18:31.998Z,1017.6
2023-05-19T03:41:57.005Z,1017.52
2023-05-19T03:48:21.356Z,1017.6
2023-05-19T03:54:39.993Z,1017.68
2023-05-19T04:01:03.017Z,1017.66
2023-05-19T04:07:22.993Z,1017.66
2023-05-19T04:13:46.011Z,1017.68
2023-05-19T04:20:06.244Z,1017.72
2023-05-19T04:26:28.982Z,1017.7
2023-05-19T04:32:49.087Z,1017.7
2023-05-19T04:39:12.092Z,1017.66
2023-05-19T04:45:31.968Z,1017.68
2023-05-19T04:51:56.012Z,1017.64
2023-05-19T04:58:15.038Z,1017.7
2023-05-19T05:04:38.030Z,1017.74
2023-05-19T05:10:57.985Z,1017.74
2023-05-19T05:17:21.080Z,1017.72
2023-05-19T05:23:41.030Z,1017.78
2023-05-19T05:30:03.974Z,1017.78
2023-05-19T05:36:24.039Z,1017.76
2023-05-19T05:42:46.995Z,1017.76
2023-05-19T05:49:07.022Z,1017.74
2023-05-19T05:55:30.319Z,1017.74
2023-05-19T06:01:49.988Z,1017.7
2023-05-19T06:08:13.027Z,1017.76
2023-05-19T06:14:33.033Z,1017.74
2023-05-19T06:20:55.988Z,1017.72
2023-05-19T06:27:16.029Z,1017.68
2023-05-19T06:33:39.007Z,1017.68
2023-05-19T06:39:59.019Z,1017.66
2023-05-19T06:46:22.002Z,1017.62
2023-05-19T06:52:42.055Z,1017.66
2023-05-19T06:59:05.024Z,1017.62
2023-05-19T07:05:24.973Z,1017.6
2023-05-19T07:11:48.074Z,1017.6
2023-05-19T07:18:08.069Z,1017.56
2023-05-19T07:24:30.993Z,1017.54
2023-05-19T07:30:51.021Z,1017.5
2023-05-19T07:37:14.018Z,1017.48
2023-05-19T07:43:34.019Z,1017.48
2023-05-19T07:49:57.085Z,1017.42
2023-05-19T07:56:16.983Z,1017.38
2023-05-19T08:02:40.116Z,1017.31
2023-05-19T08:09:00.097Z,1017.31
2023-05-19T08:15:23.030Z,1017.27
2023-05-19T08:21:42.995Z,1017.27
2023-05-19T08:28:06.142Z,1017.15
2023-05-19T08:34:25.982Z,1017.09
2023-05-19T08:57:14.050Z,1016.92
2023-05-19T09:03:37.055Z,1016.86
2023-05-19T09:09:56.990Z,1016.78
2023-05-19T09:16:20.050Z,1016.66
2023-05-19T09:22:40.008Z,1016.64
2023-05-19T09:29:02.982Z,1016.62
2023-05-19T09:35:23.019Z,1016.58
2023-05-19T09:41:45.994Z,1016.56
2023-05-19T09:48:05.988Z,1016.48
2023-05-19T09:54:29.123Z,1016.47
2023-05-19T10:00:48.975Z,1016.43
2023-05-19T10:07:11.987Z,1016.41
2023-05-19T10:13:32.022Z,1016.35
2023-05-19T10:19:54.986Z,1016.27
2023-05-19T10:26:15.002Z,1016.25
2023-05-19T10:32:38.155Z,1016.19
2023-05-19T10:38:57.991Z,1016.17
2023-05-19T10:45:20.986Z,1016.15
2023-05-19T10:51:41.000Z,1016.09
2023-05-19T10:58:03.988Z,1016.03
2023-05-19T11:04:24.045Z,1015.96
2023-05-19T11:10:47.069Z,1015.88
2023-05-19T11:17:07.028Z,1015.82
2023-05-19T11:23:30.034Z,1015.78
2023-05-19T11:29:50.039Z,1015.69
2023-05-19T11:36:12.987Z,1015.69
2023-05-19T11:42:32.992Z,1015.63
2023-05-19T11:48:56.060Z,1015.58
2023-05-19T11:55:15.996Z,1015.56
2023-05-19T12:01:38.991Z,1015.44
2023-05-19T12:07:59.010Z,1015.36
2023-05-19T12:14:22.015Z,1015.26
2023-05-19T12:20:41.976Z,1015.24
2023-05-19T12:27:05.022Z,1015.15
2023-05-19T12:33:24.986Z,1015.11
2023-05-19T12:39:47.989Z,1015.03
2023-05-19T12:46:08.085Z,1015.01
2023-05-19T12:52:30.994Z,1015.01
2023-05-19T12:58:51.007Z,1014.93
2023-05-19T13:05:14.034Z,1014.93
2023-05-19T13:11:34.010Z,1014.91
2023-05-19T13:17:57.033Z,1014.83
2023-05-19T13:24:17.120Z,1014.71
2023-05-19T13:30:40.059Z,1014.66
2023-05-19T13:37:00.041Z,1014.64
2023-05-19T13:43:23.051Z,1014.6
2023-05-19T13:49:42.982Z,1014.54
2023-05-19T13:56:05.985Z,1014.54
2023-05-19T14:02:26.091Z,1014.48
2023-05-19T14:08:48.990Z,1014.46
2023-05-19T14:15:09.828Z,1014.4
2023-05-19T14:38:15.030Z,1014.22
2023-05-19T14:44:37.982Z,1014.17
2023-05-19T14:50:57.989Z,1014.13
2023-05-19T14:57:21.128Z,1014.07
2023-05-19T15:03:40.992Z,1014.07
2023-05-19T15:10:03.977Z,1014.07
2023-05-19T15:16:24.043Z,1014.01
2023-05-19T15:22:47.001Z,1013.95
2023-05-19T15:29:06.984Z,1013.91
2023-05-19T15:35:30.039Z,1013.83
2023-05-19T15:41:49.993Z,1013.81
2023-05-19T15:48:13.037Z,1013.74
2023-05-19T15:54:33.014Z,1013.7
2023-05-19T16:00:55.986Z,1013.66
2023-05-19T16:07:15.992Z,1013.62
2023-05-19T16:13:39.009Z,1013.56
2023-05-19T16:19:58.979Z,1013.52
2023-05-19T16:26:21.995Z,1013.5
2023-05-19T16:32:42.009Z,1013.46
2023-05-19T16:39:04.986Z,1013.46
2023-05-19T16:45:24.986Z,1013.42
2023-05-19T16:51:48.957Z,1013.4
2023-05-19T16:58:09.166Z,1013.4
2023-05-19T17:04:31.982Z,1013.38
2023-05-19T17:10:52.032Z,1013.36
2023-05-19T17:17:15.059Z,1013.36
2023-05-19T17:23:34.977Z,1013.38
2023-05-19T17:29:58.018Z,1013.42
2023-05-19T17:36:17.994Z,1013.46
2023-05-19T17:42:41.000Z,1013.42
2023-05-19T17:49:01.025Z,1013.42
2023-05-19T17:55:23.983Z,1013.44
2023-05-19T18:01:44.021Z,1013.44
2023-05-19T18:08:07.087Z,1013.52
2023-05-19T18:14:27.009Z,1013.54
2023-05-19T18:20:49.985Z,1013.56
2023-05-19T18:27:10.007Z,1013.64
2023-05-19T18:33:32.990Z,1013.68
2023-05-19T18:39:52.992Z,1013.72
2023-05-19T18:46:16.107Z,1013.74
2023-05-19T18:52:35.985Z,1013.79
2023-05-19T18:58:59.001Z,1013.79
2023-05-19T19:05:19.030Z,1013.83
2023-05-19T19:11:41.976Z,1013.85
2023-05-19T19:18:02.008Z,1013.87
2023-05-19T19:24:25.010Z,1013.97
2023-05-19T19:30:44.978Z,1014.03
2023-05-19T19:37:08.009Z,1014.11
2023-05-19T19:43:28.008Z,1014.11
2023-05-19T19:49:50.984Z,1014.15
2023-05-19T19:56:10.970Z,1014.22
2023-05-19T20:02:34.057Z,1014.28
2023-05-19T20:24:43.986Z,1014.4
2023-05-19T20:31:07.017Z,1014.44
2023-05-19T20:37:26.984Z,1014.48
2023-05-19T20:43:50.030Z,1014.52
2023-05-19T20:50:10.006Z,1014.56
2023-05-19T20:56:33.026Z,1014.6
2023-05-19T21:02:53.027Z,1014.66
2023-05-19T21:09:16.000Z,1014.69
2023-05-19T21:15:35.977Z,1014.73
2023-05-19T21:21:59.009Z,1014.77
2023-05-19T21:28:18.993Z,1014.83
2023-05-19T21:34:41.993Z,1014.85
2023-05-19T21:41:02.042Z,1014.87
2023-05-19T21:47:24.989Z,1014.87
2023-05-19T21:53:45.003Z,1014.89
2023-05-19T22:00:08.039Z,1014.91
2023-05-19T22:23:06.009Z,1014.79
2023-05-19T22:29:25.972Z,1014.81
2023-05-19T22:35:49.000Z,1014.77
2023-05-19T22:42:09.034Z,1014.79
2023-05-19T22:48:31.981Z,1014.77
2023-05-19T22:54:51.986Z,1014.75
2023-05-19T23:01:15.044Z,1014.73
2023-05-19T23:07:34.971Z,1014.73
2023-05-19T23:13:57.994Z,1014.69
2023-05-19T23:20:17.997Z,1014.66
2023-05-19T23:26:41.016Z,1014.66
2023-05-19T23:33:01.005Z,1014.62
2023-05-19T23:39:24.025Z,1014.64
2023-05-19T23:45:44.018Z,1014.66
2023-05-19T23:52:07.004Z,1014.66
2023-05-19T23:58:27.090Z,1014.68
